createdAt,value
2023-05-20T00:00:11.167Z,5.90
2023-05-20T00:02:38.831Z,5.82
2023-05-20T00:05:06.401Z,6.38
2023-05-20T00:07:34.184Z,5.95
2023-05-20T00:10:01.280Z,4.47
2023-05-20T00:12:28.183Z,7.88
2023-05-20T00:14:56.324Z,5.50
2023-05-20T00:17:25.914Z,5.35
2023-05-20T00:19:53.343Z,5.43
2023-05-20T00:22:20.823Z,6.55
2023-05-20T00:24:47.827Z,6.72
2023-05-20T00:27:14.768Z,6.47
2023-05-20T00:29:41.745Z,7.43
2023-05-20T00:32:08.872Z,6.28
2023-05-20T00:34:36.391Z,7.20
2023-05-20T00:37:03.399Z,8.57
2023-05-20T00:39:30.581Z,6.45
2023-05-20T00:42:00.667Z,6.85
2023-05-20T00:44:28.253Z,7.75
2023-05-20T00:46:56.175Z,7.72
2023-05-20T00:49:23.880Z,7.13
2023-05-20T00:51:51.854Z,5.22
2023-05-20T00:54:19.635Z,5.40
2023-05-20T00:56:47.634Z,6.40
2023-05-20T00:59:14.880Z,7.20
2023-05-20T01:01:42.372Z,6.35
2023-05-20T01:04:09.809Z,5.75
2023-05-20T01:06:38.172Z,5.25
2023-05-20T01:09:05.315Z,6.63
2023-05-20T01:11:47.732Z,6.07
2023-05-20T01:14:16.721Z,6.18
2023-05-20T01:16:44.472Z,5.45
2023-05-20T01:19:35.338Z,7.30
2023-05-20T01:22:08.414Z,6.53
2023-05-20T01:24:36.891Z,6.68
2023-05-20T01:27:04.098Z,5.53
2023-05-20T01:29:32.952Z,6.10
2023-05-20T01:32:01.684Z,7.75
2023-05-20T01:34:28.811Z,7.60
2023-05-20T01:36:57.709Z,9.27
2023-05-20T01:39:26.392Z,6.10
2023-05-20T01:41:54.825Z,7.07
2023-05-20T01:44:22.905Z,7.75
2023-05-20T01:46:51.197Z,7.93
2023-05-20T01:49:18.740Z,5.95
2023-05-20T01:51:47.178Z,6.10
2023-05-20T01:54:14.166Z,7.45
2023-05-20T01:56:42.586Z,6.35
2023-05-20T01:59:09.927Z,8.65
2023-05-20T02:01:37.085Z,7.45
2023-05-20T02:04:04.647Z,6.93
2023-05-20T02:06:31.761Z,7.63
2023-05-20T02:08:58.846Z,7.80
2023-05-20T02:11:26.576Z,9.77
2023-05-20T02:13:54.899Z,7.45
2023-05-20T02:16:22.916Z,7.60
2023-05-20T02:18:53.152Z,8.27
2023-05-20T02:21:20.218Z,7.40
2023-05-20T02:23:47.389Z,8.13
2023-05-20T02:26:14.412Z,8.45
2023-05-20T02:28:46.621Z,7.00
2023-05-20T02:31:14.176Z,7.18
2023-05-20T02:33:41.609Z,8.07
2023-05-20T02:36:08.842Z,8.10
2023-05-20T02:38:36.151Z,7.88
2023-05-20T02:41:04.676Z,9.85
2023-05-20T02:43:33.270Z,7.75
2023-05-20T02:46:02.899Z,6.72
2023-05-20T02:48:29.904Z,8.40
2023-05-20T02:50:57.211Z,7.22
2023-05-20T02:53:24.293Z,9.88
2023-05-20T02:55:51.677Z,9.32
2023-05-20T02:58:18.820Z,9.18
2023-05-20T03:00:46.032Z,8.95
2023-05-20T03:03:13.738Z,8.65
2023-05-20T03:05:42.760Z,9.20
2023-05-20T03:08:11.077Z,7.82
2023-05-20T03:10:39.465Z,8.85
2023-05-20T03:13:09.099Z,11.48
2023-05-20T03:15:38.685Z,9.95
2023-05-20T03:18:07.291Z,11.73
2023-05-20T03:20:38.544Z,8.30
2023-05-20T03:23:07.485Z,8.85
2023-05-20T03:25:37.277Z,9.65
2023-05-20T03:28:04.832Z,9.13
2023-05-20T03:30:32.201Z,10.68
2023-05-20T03:32:59.671Z,10.73
2023-05-20T03:35:27.343Z,9.07
2023-05-20T03:37:55.180Z,10.25
2023-05-20T03:40:24.345Z,10.52
2023-05-20T03:42:52.257Z,12.27
2023-05-20T03:45:21.408Z,11.55
2023-05-20T03:47:57.935Z,12.05
2023-05-20T03:50:25.385Z,12.52
2023-05-20T03:52:52.528Z,11.45
2023-05-20T03:55:22.396Z,12.20
2023-05-20T03:57:49.366Z,10.82
2023-05-20T04:00:17.114Z,10.63
2023-05-20T04:02:44.174Z,11.68
2023-05-20T04:05:14.177Z,11.43
2023-05-20T04:07:42.317Z,13.30
2023-05-20T04:10:10.412Z,11.52
2023-05-20T04:12:41.541Z,11.93
2023-05-20T04:15:10.751Z,13.35
2023-05-20T04:17:48.697Z,12.00
2023-05-20T04:20:17.471Z,12.65
2023-05-20T04:22:48.705Z,12.07
2023-05-20T04:25:16.956Z,13.40
2023-05-20T04:27:44.168Z,12.10
2023-05-20T04:30:11.994Z,13.13
2023-05-20T04:32:41.768Z,12.13
2023-05-20T04:35:12.188Z,13.57
2023-05-20T04:37:53.238Z,13.80
2023-05-20T04:40:21.305Z,16.48
2023-05-20T04:42:48.400Z,16.77
2023-05-20T04:45:16.017Z,13.25
2023-05-20T04:47:44.546Z,15.88
2023-05-20T04:50:13.685Z,13.85
2023-05-20T04:52:43.261Z,15.35
2023-05-20T04:55:12.922Z,16.50
2023-05-20T04:57:42.209Z,11.93
2023-05-20T05:00:11.456Z,13.52
2023-05-20T05:02:39.962Z,15.65
2023-05-20T05:05:07.720Z,14.30
2023-05-20T05:07:35.273Z,15.80
2023-05-20T05:10:02.464Z,14.48
2023-05-20T05:12:31.069Z,15.65
2023-05-20T05:14:59.375Z,13.70
2023-05-20T05:17:29.147Z,16.00
2023-05-20T05:19:58.789Z,14.00
2023-05-20T05:22:27.956Z,15.75
2023-05-20T05:24:56.388Z,16.13
2023-05-20T05:27:23.551Z,14.75
2023-05-20T05:29:50.755Z,16.70
2023-05-20T05:32:18.941Z,20.65
2023-05-20T05:34:46.019Z,18.08
2023-05-20T05:37:13.042Z,17.58
2023-05-20T05:39:40.139Z,16.45
2023-05-20T05:42:08.242Z,17.08
2023-05-20T05:44:35.787Z,15.85
2023-05-20T05:47:07.603Z,19.73
2023-05-20T05:49:35.220Z,19.50
2023-05-20T05:52:03.255Z,18.92
2023-05-20T05:54:30.488Z,17.42
2023-05-20T05:56:57.661Z,16.77
2023-05-20T05:59:26.450Z,16.35
2023-05-20T06:01:53.764Z,17.77
2023-05-20T06:04:21.060Z,21.42
2023-05-20T06:06:49.551Z,19.15
2023-05-20T06:09:16.814Z,19.30
2023-05-20T06:11:44.568Z,18.50
2023-05-20T06:14:12.502Z,17.63
2023-05-20T06:16:40.249Z,19.15
2023-05-20T06:19:09.487Z,19.27
2023-05-20T06:21:37.083Z,17.60
2023-05-20T06:24:05.034Z,22.42
2023-05-20T06:26:33.025Z,16.83
2023-05-20T06:29:00.552Z,18.45
2023-05-20T06:31:27.823Z,18.13
2023-05-20T06:33:55.262Z,19.00
2023-05-20T06:36:22.464Z,18.70
2023-05-20T06:38:49.619Z,16.67
2023-05-20T06:41:17.175Z,21.48
2023-05-20T06:43:44.328Z,18.90
2023-05-20T06:46:31.349Z,18.60
2023-05-20T06:49:05.644Z,17.08
2023-05-20T06:51:33.343Z,17.77
2023-05-20T06:54:01.310Z,18.02
2023-05-20T06:56:28.379Z,22.30
2023-05-20T06:58:56.020Z,20.77
2023-05-20T07:01:23.266Z,19.88
2023-05-20T07:03:52.312Z,16.60
2023-05-20T07:06:19.842Z,22.63
2023-05-20T07:08:47.033Z,20.15
2023-05-20T07:11:14.517Z,20.88
2023-05-20T07:13:41.690Z,22.90
2023-05-20T07:16:09.808Z,18.42
2023-05-20T07:18:39.880Z,19.58
2023-05-20T07:21:07.090Z,20.27
2023-05-20T07:23:46.472Z,21.20
2023-05-20T07:26:20.349Z,18.48
2023-05-20T07:28:49.016Z,18.20
2023-05-20T07:31:17.110Z,20.23
2023-05-20T07:33:47.561Z,23.63
2023-05-20T07:36:15.018Z,18.23
2023-05-20T07:39:00.584Z,19.60
2023-05-20T07:43:59.634Z,20.27
2023-05-20T07:46:26.767Z,16.55
2023-05-20T07:48:54.105Z,21.63
2023-05-20T07:51:21.612Z,21.30
2023-05-20T07:53:49.016Z,19.60
2023-05-20T07:56:17.678Z,16.75
2023-05-20T07:58:55.637Z,17.83
2023-05-20T08:01:25.304Z,18.38
2023-05-20T08:03:53.019Z,17.08
2023-05-20T08:06:22.395Z,16.35
2023-05-20T08:08:50.396Z,20.10
2023-05-20T08:11:22.673Z,19.83
2023-05-20T08:13:50.817Z,18.80
2023-05-20T08:16:18.218Z,19.23
2023-05-20T08:18:46.119Z,19.38
2023-05-20T08:21:14.210Z,17.38
2023-05-20T08:23:41.563Z,19.77
2023-05-20T08:26:08.678Z,20.92
2023-05-20T08:28:39.937Z,17.23
2023-05-20T08:31:07.747Z,17.48
2023-05-20T08:33:36.932Z,17.67
2023-05-20T08:36:04.280Z,19.83
2023-05-20T08:38:31.256Z,14.25
2023-05-20T08:40:58.350Z,14.88
2023-05-20T08:43:26.720Z,20.42
2023-05-20T08:45:55.045Z,16.83
2023-05-20T08:48:27.901Z,18.88
2023-05-20T08:50:57.911Z,18.27
2023-05-20T08:53:26.713Z,20.13
2023-05-20T08:56:00.989Z,19.88
2023-05-20T08:58:30.092Z,18.60
2023-05-20T09:00:59.010Z,19.20
2023-05-20T09:03:26.446Z,17.00
2023-05-20T09:05:54.433Z,19.80
2023-05-20T09:08:28.446Z,16.15
2023-05-20T09:10:56.002Z,18.55
2023-05-20T09:13:24.610Z,17.75
2023-05-20T09:15:51.713Z,18.65
2023-05-20T09:18:18.861Z,18.58
2023-05-20T09:20:48.443Z,17.63
2023-05-20T09:23:15.495Z,23.02
2023-05-20T09:25:42.446Z,17.88
2023-05-20T09:28:09.867Z,17.42
2023-05-20T09:30:36.904Z,17.15
2023-05-20T09:33:05.532Z,16.10
2023-05-20T09:35:39.327Z,19.70
2023-05-20T09:38:10.222Z,18.23
2023-05-20T09:40:41.256Z,18.88
2023-05-20T09:43:08.583Z,17.25
2023-05-20T09:45:36.086Z,16.65
2023-05-20T09:48:05.964Z,18.42
2023-05-20T09:50:33.340Z,17.25
2023-05-20T09:53:03.885Z,16.67
2023-05-20T09:55:31.390Z,17.30
2023-05-20T09:58:02.429Z,17.63
2023-05-20T10:00:32.635Z,15.75
2023-05-20T10:03:00.080Z,17.70
2023-05-20T10:05:33.509Z,19.10
2023-05-20T10:08:12.674Z,15.32
2023-05-20T10:11:14.849Z,16.45
2023-05-20T10:14:00.041Z,19.95
2023-05-20T10:16:52.973Z,20.08
2023-05-20T10:19:33.774Z,16.20
2023-05-20T10:22:03.901Z,15.27
2023-05-20T10:24:41.610Z,16.85
2023-05-20T10:27:10.706Z,14.52
2023-05-20T10:29:56.082Z,16.02
2023-05-20T10:32:31.548Z,16.27
2023-05-20T10:35:09.410Z,19.95
2023-05-20T10:37:46.301Z,16.13
2023-05-20T10:40:15.311Z,15.48
2023-05-20T10:42:43.250Z,14.52
2023-05-20T10:45:10.956Z,16.65
2023-05-20T10:47:53.970Z,13.85
2023-05-20T10:50:36.241Z,16.40
2023-05-20T10:53:13.318Z,14.95
2023-05-20T10:55:55.156Z,15.88
2023-05-20T10:58:24.422Z,15.27
2023-05-20T11:00:55.262Z,13.45
2023-05-20T11:03:23.354Z,15.07
2023-05-20T11:05:51.307Z,14.43
2023-05-20T11:08:27.851Z,16.48
2023-05-20T11:10:59.795Z,16.08
2023-05-20T11:13:27.345Z,15.15
2023-05-20T11:15:55.600Z,15.27
2023-05-20T11:18:22.723Z,11.55
2023-05-20T11:20:49.857Z,14.50
2023-05-20T11:23:16.867Z,13.52
2023-05-20T11:25:43.906Z,12.52
2023-05-20T11:28:15.746Z,12.73
2023-05-20T11:30:43.894Z,16.15
2023-05-20T11:33:15.883Z,13.73
2023-05-20T11:35:54.026Z,13.80
2023-05-20T11:38:22.853Z,14.07
2023-05-20T11:40:55.747Z,16.02
2023-05-20T11:43:23.811Z,12.60
2023-05-20T11:45:56.351Z,11.80
2023-05-20T11:48:25.234Z,15.27
2023-05-20T11:50:54.865Z,12.55
2023-05-20T11:53:24.033Z,14.05
2023-05-20T11:55:59.353Z,12.65
2023-05-20T12:01:01.889Z,12.85
2023-05-20T12:03:37.516Z,12.02
2023-05-20T12:06:04.899Z,15.73
2023-05-20T12:08:32.012Z,10.50
2023-05-20T12:11:00.129Z,11.55
2023-05-20T12:13:27.228Z,11.70
2023-05-20T12:15:54.604Z,12.82
2023-05-20T12:18:22.850Z,11.13
2023-05-20T12:20:49.852Z,12.15
2023-05-20T12:23:16.946Z,13.27
2023-05-20T12:25:47.460Z,9.95
2023-05-20T12:28:14.818Z,11.60
2023-05-20T12:30:42.246Z,9.98
2023-05-20T12:33:09.572Z,9.73
2023-05-20T12:35:39.397Z,9.25
2023-05-20T12:38:07.987Z,9.55
2023-05-20T12:40:36.509Z,10.57
2023-05-20T12:43:06.139Z,11.00
2023-05-20T12:45:33.701Z,9.50
2023-05-20T12:48:01.139Z,8.52
2023-05-20T12:50:28.445Z,11.63
2023-05-20T12:52:55.634Z,9.45
2023-05-20T12:55:22.967Z,9.38
2023-05-20T12:57:50.567Z,10.57
2023-05-20T13:00:18.113Z,10.50
2023-05-20T13:02:45.285Z,10.88
2023-05-20T13:05:13.396Z,10.25
2023-05-20T13:07:40.595Z,8.77
2023-05-20T13:10:08.372Z,8.50
2023-05-20T13:12:36.255Z,11.57
2023-05-20T13:15:04.424Z,11.95
2023-05-20T13:17:33.063Z,7.93
2023-05-20T13:20:00.270Z,9.70
2023-05-20T13:22:27.453Z,9.55
2023-05-20T13:24:54.589Z,9.07
2023-05-20T13:27:22.205Z,9.80
2023-05-20T13:29:49.468Z,9.10
2023-05-20T13:32:17.241Z,7.78
2023-05-20T13:34:44.583Z,9.48
2023-05-20T13:37:12.119Z,9.68
2023-05-20T13:39:39.164Z,8.38
2023-05-20T13:42:07.241Z,9.38
2023-05-20T13:44:35.244Z,8.10
2023-05-20T13:47:02.878Z,8.88
2023-05-20T13:49:30.021Z,8.60
2023-05-20T13:51:57.033Z,8.98
2023-05-20T13:54:25.681Z,8.68
2023-05-20T13:56:53.314Z,7.95
2023-05-20T13:59:20.597Z,9.15
2023-05-20T14:01:47.609Z,8.23
2023-05-20T14:04:14.641Z,9.27
2023-05-20T14:06:41.876Z,10.35
2023-05-20T14:09:09.422Z,8.50
2023-05-20T14:11:36.820Z,8.50
2023-05-20T14:14:04.150Z,9.07
2023-05-20T14:16:31.983Z,9.52
2023-05-20T14:18:59.276Z,9.95
2023-05-20T14:21:26.315Z,9.75
2023-05-20T14:23:53.401Z,9.45
2023-05-20T14:26:21.618Z,9.18
2023-05-20T14:28:48.638Z,10.18
2023-05-20T14:31:16.096Z,12.05
2023-05-20T14:33:43.194Z,15.73
2023-05-20T14:36:11.356Z,10.98
2023-05-20T14:38:38.611Z,11.15
2023-05-20T14:41:05.781Z,10.07
2023-05-20T14:43:33.029Z,10.27
2023-05-20T14:46:00.558Z,15.18
2023-05-20T14:48:27.675Z,11.43
2023-05-20T14:50:54.999Z,10.93
2023-05-20T14:53:23.022Z,14.30
2023-05-20T14:55:50.291Z,12.88
2023-05-20T14:58:21.407Z,10.60
2023-05-20T15:00:48.612Z,10.93
2023-05-20T15:03:15.906Z,12.70
2023-05-20T15:05:43.243Z,11.85
2023-05-20T15:08:10.279Z,14.27
2023-05-20T15:10:37.588Z,12.85
2023-05-20T15:13:04.932Z,14.23
2023-05-20T15:15:31.967Z,11.23
2023-05-20T15:17:59.352Z,17.08
2023-05-20T15:20:26.579Z,13.60
2023-05-20T15:22:54.324Z,12.32
2023-05-20T15:25:21.432Z,10.43
2023-05-20T15:27:48.469Z,11.43
2023-05-20T15:30:15.849Z,12.88
2023-05-20T15:32:43.115Z,11.75
2023-05-20T15:35:10.638Z,14.98
2023-05-20T15:37:37.756Z,12.98
2023-05-20T15:40:05.205Z,11.27
2023-05-20T15:42:32.458Z,11.60
2023-05-20T15:44:59.589Z,12.18
2023-05-20T15:47:26.700Z,13.18
2023-05-20T15:49:54.651Z,11.73
2023-05-20T15:52:21.671Z,12.27
2023-05-20T15:54:48.719Z,13.43
2023-05-20T15:57:16.014Z,14.57
2023-05-20T15:59:43.357Z,12.18
2023-05-20T16:02:10.601Z,13.00
2023-05-20T16:04:37.772Z,12.20
2023-05-20T16:07:05.016Z,12.70
2023-05-20T16:09:32.193Z,14.70
2023-05-20T16:11:59.216Z,13.02
2023-05-20T16:14:26.356Z,13.38
2023-05-20T16:16:53.825Z,15.05
2023-05-20T16:19:20.897Z,14.40
2023-05-20T16:21:47.961Z,16.20
2023-05-20T16:24:15.756Z,15.07
2023-05-20T16:26:43.017Z,15.93
2023-05-20T16:29:09.999Z,15.98
2023-05-20T16:31:37.126Z,17.40
2023-05-20T16:34:04.609Z,16.65
2023-05-20T16:36:32.110Z,13.88
2023-05-20T16:38:59.056Z,15.73
2023-05-20T16:41:26.392Z,16.98
2023-05-20T16:43:53.628Z,14.82
2023-05-20T16:46:21.118Z,14.18
2023-05-20T16:48:49.504Z,14.38
2023-05-20T16:51:17.152Z,14.20
2023-05-20T16:53:44.222Z,16.23
2023-05-20T16:56:12.266Z,14.70
2023-05-20T16:58:39.275Z,13.75
2023-05-20T17:01:06.856Z,17.08
2023-05-20T17:03:35.688Z,14.10
2023-05-20T17:06:02.804Z,14.65
2023-05-20T17:08:29.995Z,15.18
2023-05-20T17:10:59.258Z,15.38
2023-05-20T17:13:26.819Z,16.48
2023-05-20T17:15:54.579Z,14.55
2023-05-20T17:18:23.084Z,16.67
2023-05-20T17:20:50.118Z,15.60
2023-05-20T17:23:17.133Z,18.08
2023-05-20T17:25:44.316Z,17.20
2023-05-20T17:28:11.370Z,14.70
2023-05-20T17:30:38.381Z,16.65
2023-05-20T17:33:05.631Z,17.10
2023-05-20T17:35:32.758Z,14.20
2023-05-20T17:37:59.827Z,15.18
2023-05-20T17:40:26.933Z,15.05
2023-05-20T17:42:53.992Z,17.40
2023-05-20T17:45:21.121Z,15.43
2023-05-20T17:47:48.672Z,15.10
2023-05-20T17:50:16.712Z,14.10
2023-05-20T17:52:43.901Z,13.75
2023-05-20T17:55:11.052Z,15.63
2023-05-20T17:57:38.080Z,17.38
2023-05-20T18:00:06.595Z,22.35
2023-05-20T18:02:33.714Z,17.15
2023-05-20T18:05:00.791Z,14.35
2023-05-20T18:07:27.849Z,15.98
2023-05-20T18:09:55.378Z,17.00
2023-05-20T18:12:22.558Z,14.88
2023-05-20T18:14:49.536Z,15.65
2023-05-20T18:17:16.774Z,17.00
2023-05-20T18:19:43.782Z,15.43
2023-05-20T18:22:11.032Z,17.70
2023-05-20T18:24:38.008Z,16.05
2023-05-20T18:27:05.688Z,17.35
2023-05-20T18:29:32.927Z,18.70
2023-05-20T18:32:00.084Z,18.13
2023-05-20T18:34:27.340Z,18.48
2023-05-20T18:36:54.573Z,17.70
2023-05-20T18:39:21.745Z,18.00
2023-05-20T18:41:49.241Z,18.33
2023-05-20T18:44:17.372Z,16.23
2023-05-20T18:46:45.191Z,16.73
2023-05-20T18:49:13.621Z,18.27
2023-05-20T18:51:41.181Z,21.52
2023-05-20T18:54:09.268Z,16.83
2023-05-20T18:56:36.537Z,17.95
2023-05-20T18:59:03.620Z,17.58
2023-05-20T19:01:31.326Z,16.20
2023-05-20T19:03:58.669Z,16.70
2023-05-20T19:06:25.940Z,16.90
2023-05-20T19:08:54.038Z,18.38
2023-05-20T19:11:21.685Z,16.75
2023-05-20T19:13:48.793Z,15.10
2023-05-20T19:16:15.978Z,18.55
2023-05-20T19:18:43.232Z,16.08
2023-05-20T19:21:10.759Z,15.73
2023-05-20T19:23:37.764Z,16.98
2023-05-20T19:26:04.964Z,15.55
2023-05-20T19:28:32.076Z,15.70
2023-05-20T19:31:00.189Z,14.57
2023-05-20T19:33:27.456Z,15.15
2023-05-20T19:35:54.533Z,13.95
2023-05-20T19:38:21.686Z,14.98
2023-05-20T19:40:48.754Z,12.90
2023-05-20T19:43:16.011Z,13.80
2023-05-20T19:45:43.460Z,13.80
2023-05-20T19:48:10.941Z,14.07
2023-05-20T19:50:38.145Z,12.40
2023-05-20T19:53:07.466Z,11.35
2023-05-20T19:55:36.415Z,13.10
2023-05-20T19:58:03.925Z,12.15
2023-05-20T20:00:31.126Z,13.88
2023-05-20T20:02:59.526Z,13.43
2023-05-20T20:05:27.041Z,12.98
2023-05-20T20:07:54.197Z,15.02
2023-05-20T20:10:21.728Z,13.38
2023-05-20T20:12:49.872Z,14.32
2023-05-20T20:15:17.523Z,14.75
2023-05-20T20:17:45.997Z,12.88
2023-05-20T20:20:14.426Z,14.45
2023-05-20T20:22:42.295Z,13.77
2023-05-20T20:25:09.551Z,13.18
2023-05-20T20:27:36.520Z,14.93
2023-05-20T20:30:05.436Z,14.57
2023-05-20T20:32:32.493Z,16.63
2023-05-20T20:34:59.677Z,17.00
2023-05-20T20:37:27.476Z,15.55
2023-05-20T20:39:55.326Z,14.77
2023-05-20T20:42:22.993Z,16.42
2023-05-20T20:44:53.150Z,14.63
2023-05-20T20:47:20.312Z,15.00
2023-05-20T20:49:47.728Z,14.85
2023-05-20T20:52:15.385Z,15.23
2023-05-20T20:54:43.880Z,14.63
2023-05-20T20:57:11.671Z,14.73
2023-05-20T20:59:39.941Z,14.65
2023-05-20T21:02:07.179Z,16.40
2023-05-20T21:04:34.364Z,15.82
2023-05-20T21:07:02.840Z,17.13
2023-05-20T21:09:31.550Z,15.90
2023-05-20T21:12:01.156Z,18.00
2023-05-20T21:14:28.298Z,15.70
2023-05-20T21:16:57.300Z,15.68
2023-05-20T21:19:24.866Z,15.23
2023-05-20T21:21:52.064Z,15.02
2023-05-20T21:24:20.036Z,16.65
2023-05-20T21:26:47.136Z,15.38
2023-05-20T21:29:14.109Z,14.75
2023-05-20T21:31:41.107Z,16.48
2023-05-20T21:34:08.286Z,14.50
2023-05-20T21:36:36.327Z,16.48
2023-05-20T21:39:03.394Z,14.73
2023-05-20T21:41:30.539Z,13.90
2023-05-20T21:43:57.839Z,14.63
2023-05-20T21:46:24.948Z,14.85
2023-05-20T21:48:52.358Z,15.18
2023-05-20T21:51:19.451Z,15.10
2023-05-20T21:53:46.683Z,14.70
2023-05-20T21:56:13.718Z,14.32
2023-05-20T21:58:41.928Z,14.77
2023-05-20T22:01:10.089Z,13.52
2023-05-20T22:03:38.386Z,14.70
2023-05-20T22:06:06.136Z,13.20
2023-05-20T22:08:36.406Z,15.00
2023-05-20T22:11:07.465Z,12.88
2023-05-20T22:13:35.835Z,14.00
2023-05-20T22:16:05.036Z,14.68
2023-05-20T22:18:32.694Z,14.52
2023-05-20T22:21:01.265Z,15.02
2023-05-20T22:23:28.919Z,13.98
2023-05-20T22:25:56.305Z,14.52
2023-05-20T22:28:23.823Z,14.15
2023-05-20T22:30:51.679Z,16.77
2023-05-20T22:33:18.825Z,15.77
2023-05-20T22:35:46.123Z,15.88
2023-05-20T22:38:13.352Z,15.15
2023-05-20T22:40:40.877Z,14.18
2023-05-20T22:43:07.989Z,16.63
2023-05-20T22:45:35.270Z,14.18
2023-05-20T22:48:03.830Z,14.82
2023-05-20T22:50:34.470Z,15.98
2023-05-20T22:53:02.836Z,14.95
2023-05-20T22:55:32.937Z,15.20
2023-05-20T22:58:00.023Z,15.05
2023-05-20T23:00:27.081Z,14.90
2023-05-20T23:02:54.110Z,16.00
2023-05-20T23:05:21.180Z,16.65
2023-05-20T23:07:48.288Z,15.85
2023-05-20T23:10:15.354Z,14.60
2023-05-20T23:12:43.789Z,16.80
2023-05-20T23:15:11.475Z,16.00
2023-05-20T23:17:39.741Z,16.63
2023-05-20T23:20:10.988Z,14.88
2023-05-20T23:22:38.362Z,16.65
2023-05-20T23:25:05.858Z,17.42
2023-05-20T23:27:33.097Z,19.75
2023-05-20T23:30:00.244Z,17.77
2023-05-20T23:32:27.268Z,20.05
2023-05-20T23:34:55.239Z,19.08
2023-05-20T23:37:22.589Z,21.55
2023-05-20T23:39:49.586Z,18.17
2023-05-20T23:42:16.825Z,23.70
2023-05-20T23:44:43.883Z,17.30
2023-05-20T23:47:13.618Z,15.88
2023-05-20T23:49:41.726Z,15.57
2023-05-20T23:52:08.769Z,16.70
2023-05-20T23:54:35.721Z,17.80
2023-05-20T23:57:02.686Z,17.92
2023-05-20T23:59:29.713Z,18.00
